Time;durP1;ratioP1;P1;durP2;ratioP2;P2;SDS_P1;SDS_P2;PMS_P1;PMS_P2;Temp;Humidity;BMP_temperature;BMP_pressure;BME280_temperature;BME280_humidity;BME280_pressure;Samples;Min_cycle;Max_cycle;Signal;HPM_P1;HPM_P2
2021/03/22 00:00:05;;;;;;;47.15;22.07;;;;;;;-2.54;79.61;99765.50;1724120;83;21204;-79
2021/03/22 00:03:11;;;;;;;48.13;23.50;;;;;;;-2.52;79.46;99764.90;1714326;84;21842;-79
2021/03/22 00:06:17;;;;;;;56.37;26.23;;;;;;;-2.49;79.37;99770.05;1724036;83;21338;-79
2021/03/22 00:09:23;;;;;;;55.78;25.62;;;;;;;-2.45;79.19;99759.95;1714474;83;21263;-79
2021/03/22 00:12:29;;;;;;;60.70;24.37;;;;;;;-2.44;78.97;99755.86;1724206;83;21764;-79
2021/03/22 00:15:39;;;;;;;56.50;25.85;;;;;;;-2.43;78.81;99756.70;1713217;83;21338;-79
2021/03/22 00:18:45;;;;;;;62.58;25.15;;;;;;;-2.44;78.61;99771.07;1723066;83;21318;-79
2021/03/22 00:21:51;;;;;;;61.23;26.82;;;;;;;-2.46;78.52;99774.32;1719273;83;21290;-79
2021/03/22 00:24:58;;;;;;;65.75;28.42;;;;;;;-2.53;78.31;99769.03;1721523;83;21228;-79
2021/03/22 00:28:05;;;;;;;64.35;28.38;;;;;;;-2.61;78.33;99761.03;1721440;83;21783;-79
2021/03/22 00:31:10;;;;;;;61.50;28.30;;;;;;;-2.67;78.44;99771.32;1721577;83;21164;-79
2021/03/22 00:34:16;;;;;;;79.50;32.48;;;;;;;-2.73;78.65;99769.93;1721349;83;21211;-79
2021/03/22 00:37:21;;;;;;;79.70;30.95;;;;;;;-2.74;78.91;99766.85;1721502;83;21726;-79
2021/03/22 00:40:28;;;;;;;74.55;32.78;;;;;;;-2.72;79.21;99760.93;1721537;83;21270;-79
2021/03/22 00:43:34;;;;;;;68.50;29.85;;;;;;;-2.73;79.13;99754.32;1720572;83;21337;-79
2021/03/22 00:46:39;;;;;;;72.50;31.07;;;;;;;-2.80;79.18;99749.03;1719082;83;21179;-79
2021/03/22 00:49:46;;;;;;;79.90;34.48;;;;;;;-2.89;79.54;99748.69;1720500;83;21369;-79
2021/03/22 00:52:52;;;;;;;73.85;32.83;;;;;;;-2.90;80.10;99748.80;1720016;83;21243;-79
2021/03/22 00:55:59;;;;;;;93.90;39.23;;;;;;;-2.86;80.62;99755.67;1720377;83;21357;-79
2021/03/22 00:59:05;;;;;;;84.00;36.90;;;;;;;-2.81;81.02;99754.02;1719024;83;22626;-79
2021/03/22 01:02:13;;;;;;;92.27;38.23;;;;;;;-2.74;81.30;99760.64;1720320;83;21995;-79
2021/03/22 01:05:20;;;;;;;72.30;32.80;;;;;;;-2.65;81.47;99762.69;1720131;83;21322;-79
2021/03/22 01:08:25;;;;;;;91.08;36.23;;;;;;;-2.58;81.13;99758.64;1721480;83;21263;-79
2021/03/22 01:11:31;;;;;;;84.20;34.85;;;;;;;-2.64;80.75;99759.05;1721411;83;21152;-79
2021/03/22 01:14:37;;;;;;;95.47;38.60;;;;;;;-2.66;80.94;99748.45;1721523;83;21278;-79
2021/03/22 01:17:42;;;;;;;86.95;35.50;;;;;;;-2.63;81.11;99748.25;1721409;83;21211;-79
2021/03/22 01:20:52;;;;;;;81.15;36.15;;;;;;;-2.59;81.22;99749.75;1721477;83;21262;-79
2021/03/22 01:23:58;;;;;;;91.20;34.63;;;;;;;-2.57;81.17;99736.25;1722264;83;21245;-79
2021/03/22 01:27:07;;;;;;;84.47;35.95;;;;;;;-2.54;81.14;99741.85;1722778;83;21191;-79
2021/03/22 01:30:30;;;;;;;91.05;36.42;;;;;;;-2.55;81.06;99731.63;1722689;83;21365;-79
2021/03/22 01:33:38;;;;;;;89.40;36.63;;;;;;;-2.58;80.94;99738.07;1724182;83;21163;-79
2021/03/22 01:36:44;;;;;;;76.63;32.10;;;;;;;-2.64;81.03;99736.28;1724434;83;21192;-79
2021/03/22 01:39:50;;;;;;;84.22;35.08;;;;;;;-2.66;81.29;99728.37;1723277;83;21844;-79
2021/03/22 01:43:32;;;;;;;63.20;30.43;;;;;;;-2.69;81.33;99717.01;1722646;83;21266;-79
2021/03/22 01:46:31;;;;;;;71.02;31.68;;;;;;;-2.66;81.77;99722.16;1723125;83;21345;-79
2021/03/22 01:49:40;;;;;;;62.40;25.97;;;;;;;-2.60;81.97;99724.40;1724427;83;21266;-79
2021/03/22 01:52:49;;;;;;;60.80;28.20;;;;;;;-2.62;81.90;99723.66;1724318;83;21304;-79
2021/03/22 01:55:54;;;;;;;62.03;27.98;;;;;;;-2.63;81.99;99720.62;1723861;83;21873;-79
2021/03/22 01:59:00;;;;;;;58.68;29.20;;;;;;;-2.63;82.04;99726.83;1721585;83;21192;-79
2021/03/22 02:02:08;;;;;;;63.38;28.25;;;;;;;-2.64;81.85;99722.41;1724103;83;21215;-79
2021/03/22 02:05:16;;;;;;;60.98;27.60;;;;;;;-2.67;81.69;99719.97;1724112;83;21235;-79
2021/03/22 02:08:25;;;;;;;64.42;26.77;;;;;;;-2.73;81.56;99716.39;1724128;83;21829;-79
2021/03/22 02:11:35;;;;;;;51.15;24.40;;;;;;;-2.77;81.83;99717.56;1724257;83;21262;-79
2021/03/22 02:14:41;;;;;;;50.52;24.37;;;;;;;-2.77;81.88;99714.88;1724099;83;21294;-79
2021/03/22 02:17:47;;;;;;;45.55;23.55;;;;;;;-2.79;81.86;99709.24;1724149;83;21322;-79
2021/03/22 02:21:35;;;;;;;46.15;22.65;;;;;;;-2.83;81.81;99704.09;1715375;83;21707;-79
2021/03/22 02:25:06;;;;;;;41.48;22.52;;;;;;;-2.85;81.91;99696.66;1724142;83;21310;-79
2021/03/22 02:28:30;;;;;;;44.33;22.22;;;;;;;-2.84;82.20;99697.52;1724092;83;21346;-79
2021/03/22 02:32:14;;;;;;;43.13;21.90;;;;;;;-2.84;82.28;99698.86;1724105;83;21164;-79
2021/03/22 02:35:39;;;;;;;48.48;23.32;;;;;;;-2.82;82.36;99696.95;1724155;83;21266;-79
2021/03/22 02:38:45;;;;;;;34.70;19.12;;;;;;;-2.81;82.16;99697.31;1722365;83;21706;-79
2021/03/22 02:42:06;;;;;;;39.63;21.25;;;;;;;-2.82;82.07;99694.27;1703618;83;21342;-79
2021/03/22 02:45:12;;;;;;;44.15;21.77;;;;;;;-2.84;81.90;99682.31;1723968;83;21859;-79
2021/03/22 02:48:29;;;;;;;47.45;23.67;;;;;;;-2.87;81.81;99675.86;1724157;83;21273;-79
2021/03/22 02:52:13;;;;;;;39.65;20.80;;;;;;;-2.89;81.85;99675.57;1723914;83;21310;-79
2021/03/22 02:55:36;;;;;;;43.25;21.35;;;;;;;-2.89;81.94;99682.27;1724115;83;21758;-79
2021/03/22 02:59:05;;;;;;;41.00;20.70;;;;;;;-2.88;82.02;99670.59;1724158;83;21227;-79
2021/03/22 03:02:13;;;;;;;35.40;18.70;;;;;;;-2.85;82.06;99676.59;1724356;83;21774;-79
2021/03/22 03:05:22;;;;;;;45.23;21.40;;;;;;;-2.83;81.99;99673.31;1724106;83;21325;-79
2021/03/22 03:08:34;;;;;;;37.10;18.87;;;;;;;-2.84;81.87;99669.41;1724397;83;21258;-79
2021/03/22 03:11:39;;;;;;;40.98;19.80;;;;;;;-2.84;81.89;99671.61;1724190;83;21634;-79
2021/03/22 03:14:44;;;;;;;35.15;18.65;;;;;;;-2.79;82.06;99670.43;1722061;83;21896;-79
2021/03/22 03:17:50;;;;;;;36.85;19.65;;;;;;;-2.77;82.15;99664.02;1723118;83;21353;-78
2021/03/22 03:20:57;;;;;;;38.48;18.12;;;;;;;-2.74;82.32;99665.13;1721760;83;22582;-78
2021/03/22 03:24:02;;;;;;;45.15;19.35;;;;;;;-2.67;82.69;99657.53;1715551;83;21335;-78
2021/03/22 03:27:07;;;;;;;30.77;17.12;;;;;;;-2.60;82.98;99655.63;1703664;84;21264;-78
2021/03/22 03:30:22;;;;;;;33.23;17.82;;;;;;;-2.49;83.24;99652.67;1703747;84;21307;-79
2021/03/22 03:33:28;;;;;;;29.50;17.67;;;;;;;-2.40;83.22;99656.03;1703692;84;21954;-78
2021/03/22 03:36:34;;;;;;;35.13;17.12;;;;;;;-2.35;83.19;99653.42;1671889;86;21273;-79
2021/03/22 03:39:39;;;;;;;28.98;16.12;;;;;;;-2.25;83.18;99650.93;1703816;84;21279;-78
2021/03/22 03:42:45;;;;;;;27.85;16.48;;;;;;;-2.13;83.17;99648.67;1703681;84;21827;-79
2021/03/22 03:45:51;;;;;;;35.30;16.45;;;;;;;-2.04;82.83;99639.60;1703544;84;21666;-79
2021/03/22 03:48:56;;;;;;;26.20;15.35;;;;;;;-1.95;82.58;99644.28;1703684;84;21268;-78
2021/03/22 03:52:02;;;;;;;27.02;14.47;;;;;;;-1.90;82.34;99644.31;1671790;86;21643;-78
2021/03/22 03:55:06;;;;;;;29.05;16.05;;;;;;;-1.89;82.17;99641.14;1703698;84;21332;-78
2021/03/22 03:58:12;;;;;;;29.87;13.90;;;;;;;-1.88;82.19;99635.69;1703526;84;21795;-79
2021/03/22 04:01:18;;;;;;;27.67;14.50;;;;;;;-1.84;82.10;99636.30;1703598;84;21197;-78
2021/03/22 04:04:23;;;;;;;28.65;16.02;;;;;;;-1.85;82.03;99636.78;1703697;84;21329;-79
2021/03/22 04:07:28;;;;;;;21.80;12.93;;;;;;;-1.88;81.99;99625.45;1671781;86;21721;-78
2021/03/22 04:10:34;;;;;;;24.92;13.13;;;;;;;-1.87;81.99;99626.67;1703666;84;21319;-79
2021/03/22 04:13:40;;;;;;;26.02;14.43;;;;;;;-1.89;82.03;99632.61;1703591;84;21267;-79
2021/03/22 04:16:45;;;;;;;27.07;15.72;;;;;;;-1.89;82.20;99629.08;1693767;83;21312;-79
2021/03/22 04:19:50;;;;;;;31.37;17.37;;;;;;;-1.85;82.50;99632.77;1681507;85;21272;-78
2021/03/22 04:22:56;;;;;;;31.17;15.85;;;;;;;-1.75;82.70;99630.25;1684301;85;21757;-78
2021/03/22 04:26:01;;;;;;;27.62;16.02;;;;;;;-1.67;82.69;99636.39;1665926;85;21335;-78
2021/03/22 04:29:06;;;;;;;31.45;17.80;;;;;;;-1.58;82.72;99635.70;1685072;84;22158;-79
2021/03/22 04:32:12;;;;;;;28.90;15.85;;;;;;;-1.45;82.70;99642.34;1683882;85;21161;-79
2021/03/22 04:35:19;;;;;;;28.57;16.97;;;;;;;-1.31;82.67;99641.66;1684116;85;21152;-79
2021/03/22 04:38:24;;;;;;;25.05;15.00;;;;;;;-1.14;82.51;99636.80;1651915;86;21268;-78
2021/03/22 04:41:30;;;;;;;27.52;16.45;;;;;;;-1.01;82.25;99631.35;1673170;86;21292;-79
2021/03/22 04:44:34;;;;;;;26.35;15.83;;;;;;;-0.91;82.12;99636.36;1673281;86;21193;-81
2021/03/22 04:47:39;;;;;;;22.90;12.98;;;;;;;-0.82;81.98;99636.50;1673135;86;21800;-79
2021/03/22 04:50:44;;;;;;;23.25;14.10;;;;;;;-0.72;81.91;99635.78;1662380;85;21179;-79
2021/03/22 04:53:50;;;;;;;26.80;14.75;;;;;;;-0.66;81.72;99627.23;1656506;86;21171;-79
2021/03/22 04:56:55;;;;;;;41.63;18.35;;;;;;;-0.63;81.78;99622.97;1644507;87;21933;-79
2021/03/22 05:00:00;;;;;;;30.50;17.00;;;;;;;-0.56;81.89;99631.77;1656163;86;21793;-79
2021/03/22 05:03:05;;;;;;;46.80;22.60;;;;;;;-0.44;82.03;99637.98;1664032;86;21793;-79
2021/03/22 05:06:12;;;;;;;35.70;20.30;;;;;;;-0.33;81.98;99637.11;1662257;85;21314;-79
2021/03/22 05:09:17;;;;;;;33.67;18.77;;;;;;;-0.20;82.01;99638.33;1646765;87;21272;-79
2021/03/22 05:12:22;;;;;;;35.17;20.20;;;;;;;-0.05;82.01;99637.07;1644599;87;21788;-79
2021/03/22 05:15:28;;;;;;;40.73;18.98;;;;;;;0.09;81.89;99640.83;1658899;86;21324;-79
2021/03/22 05:18:35;;;;;;;35.00;19.70;;;;;;;0.27;81.80;99640.30;1694325;83;21254;-78
2021/03/22 05:21:41;;;;;;;33.05;18.17;;;;;;;0.44;81.56;99635.23;1689894;83;21295;-79
2021/03/22 05:24:46;;;;;;;26.20;13.75;;;;;;;0.55;81.08;99640.20;1690375;83;21241;-80
2021/03/22 05:27:51;;;;;;;22.85;14.18;;;;;;;0.55;80.56;99636.16;1724319;81;21440;-82
2021/03/22 05:30:57;;;;;;;27.27;13.90;;;;;;;0.49;80.46;99634.84;1729224;82;21956;-81
2021/03/22 05:34:02;;;;;;;19.87;12.85;;;;;;;0.45;80.52;99641.47;1728116;82;21341;-82
2021/03/22 05:37:09;;;;;;;17.20;11.55;;;;;;;0.44;80.61;99634.38;1728715;82;21346;-80
2021/03/22 05:40:19;;;;;;;21.93;13.22;;;;;;;0.45;80.82;99628.86;1725643;82;21290;-81
2021/03/22 05:44:01;;;;;;;23.80;13.18;;;;;;;0.47;81.01;99632.30;1703555;83;21346;-80
2021/03/22 05:47:27;;;;;;;22.25;12.78;;;;;;;0.51;81.24;99627.48;1727736;82;21945;-80
2021/03/22 05:50:46;;;;;;;22.22;12.43;;;;;;;0.59;81.43;99630.89;1740113;81;21260;-81
2021/03/22 05:53:59;;;;;;;19.67;12.03;;;;;;;0.70;81.58;99627.64;1730306;82;21331;-83
2021/03/22 05:57:25;;;;;;;24.57;14.87;;;;;;;0.83;81.50;99624.77;1730916;81;21208;-81
2021/03/22 06:01:04;;;;;;;19.82;12.93;;;;;;;0.91;81.43;99624.97;1727053;82;21353;-80
2021/03/22 06:04:48;;;;;;;21.00;13.28;;;;;;;1.03;81.16;99624.39;1720858;81;21369;-81
2021/03/22 06:08:02;;;;;;;25.77;14.18;;;;;;;1.11;80.80;99627.78;1689317;83;21263;-82
2021/03/22 06:11:58;;;;;;;24.85;14.73;;;;;;;1.19;80.59;99625.28;1722011;82;21282;-79
2021/03/22 06:15:43;;;;;;;20.72;12.98;;;;;;;1.28;80.39;99623.14;1701452;82;21295;-79
2021/03/22 06:19:01;;;;;;;23.60;13.53;;;;;;;1.38;79.98;99620.49;1702461;82;22467;-79
2021/03/22 06:22:06;;;;;;;25.30;13.65;;;;;;;1.41;79.84;99620.20;1720948;81;21744;-79
2021/03/22 06:25:25;;;;;;;28.10;14.75;;;;;;;1.47;79.77;99619.19;1721433;81;21368;-79
2021/03/22 06:28:38;;;;;;;26.33;14.38;;;;;;;1.46;79.52;99613.94;1689603;82;21216;-79
2021/03/22 06:31:45;;;;;;;29.72;15.32;;;;;;;1.42;79.65;99613.84;1694393;82;21156;-80
2021/03/22 06:35:04;;;;;;;30.60;15.65;;;;;;;1.47;79.67;99611.59;1711708;82;21886;-80
2021/03/22 06:38:19;;;;;;;35.05;17.00;;;;;;;1.48;79.53;99608.76;1709080;82;21169;-78
2021/03/22 06:41:59;;;;;;;39.17;16.73;;;;;;;1.51;79.18;99609.00;1707916;82;21177;-77
2021/03/22 06:49:43;;;;;;;33.53;15.98;;;;;;;1.73;78.69;99607.42;1734998;81;21517;-77
2021/03/22 06:52:58;;;;;;;34.88;16.82;;;;;;;1.83;78.23;99598.01;1726761;81;21247;-79
2021/03/22 06:56:43;;;;;;;38.15;16.87;;;;;;;1.82;77.75;99603.05;1718196;81;22732;-79
2021/03/22 07:00:21;;;;;;;30.82;17.30;;;;;;;1.78;77.75;99605.16;1720730;82;21783;-79
2021/03/22 07:03:56;;;;;;;29.18;15.58;;;;;;;1.83;78.11;99600.70;1720506;81;21205;-79
2021/03/22 07:07:35;;;;;;;36.65;18.80;;;;;;;1.92;78.21;99608.47;1713506;82;21204;-79
2021/03/22 07:11:08;;;;;;;35.40;18.07;;;;;;;2.00;77.96;99597.85;1713717;82;21203;-79
2021/03/22 07:14:23;;;;;;;46.18;23.22;;;;;;;2.10;78.05;99595.17;1708573;82;21166;-79
2021/03/22 07:17:39;;;;;;;42.30;19.55;;;;;;;2.20;78.06;99591.98;1710180;82;21843;-77
2021/03/22 07:21:04;;;;;;;52.60;22.98;;;;;;;2.36;78.26;99584.70;1709185;82;22033;-78
2021/03/22 07:24:17;;;;;;;50.00;23.40;;;;;;;2.46;78.02;99590.45;1710081;82;21479;-77
2021/03/22 07:27:41;;;;;;;50.15;22.70;;;;;;;2.52;77.85;99580.42;1720389;81;21394;-78
2021/03/22 07:31:03;;;;;;;53.83;23.32;;;;;;;2.67;77.69;99577.28;1698283;83;21207;-77
2021/03/22 07:34:31;;;;;;;50.73;24.07;;;;;;;2.83;77.14;99578.06;1695840;83;21270;-78
2021/03/22 07:38:09;;;;;;;49.53;22.20;;;;;;;2.98;76.57;99564.45;1696024;82;21346;-79
2021/03/22 07:41:27;;;;;;;37.70;17.67;;;;;;;3.11;75.89;99564.14;1698458;83;21286;-77
2021/03/22 07:45:20;;;;;;;39.15;20.43;;;;;;;3.26;74.97;99556.75;1701754;83;21990;-79
2021/03/22 07:49:12;;;;;;;38.75;19.73;;;;;;;3.45;73.73;99557.67;1695806;83;21361;-79
2021/03/22 07:52:56;;;;;;;41.00;19.20;;;;;;;3.70;72.90;99552.05;1697101;83;21345;-78
2021/03/22 07:56:57;;;;;;;35.78;17.95;;;;;;;3.92;72.15;99546.73;1684994;83;21255;-77
2021/03/22 08:01:02;;;;;;;37.03;19.37;;;;;;;4.16;70.38;99541.58;1696339;83;21266;-78
2021/03/22 08:04:40;;;;;;;32.40;15.20;;;;;;;4.36;69.52;99537.70;1637504;86;21211;-79
2021/03/22 08:08:15;;;;;;;37.55;15.63;;;;;;;4.59;67.96;99539.94;1610395;87;21397;-77
2021/03/22 08:12:03;;;;;;;31.45;15.48;;;;;;;4.70;67.06;99535.61;1617121;83;21202;-80
2021/03/22 08:16:15;;;;;;;29.90;15.43;;;;;;;4.81;66.39;99535.88;1725616;81;21776;-77
2021/03/22 08:19:35;;;;;;;23.98;13.38;;;;;;;4.94;65.70;99525.95;1722869;82;22469;-77
2021/03/22 08:22:52;;;;;;;26.75;14.05;;;;;;;5.04;65.15;99523.50;1723165;82;21185;-78
2021/03/22 08:26:00;;;;;;;20.02;11.63;;;;;;;5.20;64.40;99519.19;1721040;82;21730;-77
2021/03/22 08:29:26;;;;;;;17.25;10.48;;;;;;;5.33;64.12;99514.17;1695387;83;22643;-77
2021/03/22 08:32:53;;;;;;;18.30;10.85;;;;;;;5.52;63.18;99510.36;1664113;84;21225;-77
2021/03/22 08:36:07;;;;;;;14.13;9.55;;;;;;;5.67;62.44;99501.93;1655895;85;21249;-79
2021/03/22 08:39:42;;;;;;;18.52;9.60;;;;;;;5.79;61.34;99501.13;1683573;84;21633;-79
2021/03/22 08:43:09;;;;;;;13.18;8.88;;;;;;;5.82;59.38;99499.42;1682525;83;21839;-77
2021/03/22 08:46:34;;;;;;;16.07;9.63;;;;;;;5.85;58.57;99495.88;1670038;83;21353;-77
2021/03/22 08:50:04;;;;;;;10.98;7.30;;;;;;;5.86;58.23;99496.22;1683678;83;21292;-77
2021/03/22 08:53:20;;;;;;;12.28;7.62;;;;;;;5.89;57.97;99488.27;1684400;83;21101;-77
2021/03/22 08:56:52;;;;;;;11.95;8.48;;;;;;;5.94;57.10;99485.92;1680094;83;21649;-78
2021/03/22 09:00:29;;;;;;;11.35;7.37;;;;;;;5.98;56.73;99484.58;1682688;83;21201;-78
2021/03/22 09:03:46;;;;;;;11.95;8.45;;;;;;;5.99;55.55;99480.00;1682257;83;21279;-78
2021/03/22 09:07:22;;;;;;;15.40;8.10;;;;;;;5.99;53.97;99484.07;1681331;83;22301;-77
2021/03/22 09:10:41;;;;;;;9.95;6.75;;;;;;;6.00;53.22;99474.91;1681100;83;21259;-76
2021/03/22 09:14:04;;;;;;;10.32;7.22;;;;;;;6.07;51.94;99461.86;1680781;83;21225;-78
2021/03/22 09:17:10;;;;;;;8.78;5.78;;;;;;;6.09;52.03;99465.75;1667590;83;21212;-78
2021/03/22 09:20:31;;;;;;;7.35;5.95;;;;;;;6.13;50.10;99458.98;1659021;83;21261;-78
2021/03/22 09:23:45;;;;;;;9.08;6.45;;;;;;;6.14;49.92;99456.08;1677172;83;21711;-78
2021/03/22 09:27:02;;;;;;;9.45;6.22;;;;;;;6.14;50.47;99459.30;1684296;83;21252;-78
2021/03/22 09:30:22;;;;;;;9.80;6.65;;;;;;;6.17;49.76;99456.78;1682203;83;21251;-77
2021/03/22 09:34:00;;;;;;;10.13;6.60;;;;;;;6.14;50.18;99448.45;1688870;83;21189;-77
2021/03/22 09:37:48;;;;;;;9.48;6.47;;;;;;;6.19;50.04;99440.64;1686815;83;21287;-78
2021/03/22 09:41:05;;;;;;;10.88;7.87;;;;;;;6.20;49.05;99442.33;1680187;83;22203;-78
2021/03/22 09:44:18;;;;;;;9.30;6.90;;;;;;;6.15;49.74;99438.77;1684888;83;21315;-78
2021/03/22 09:47:28;;;;;;;9.15;6.87;;;;;;;6.18;51.94;99434.88;1681382;83;21177;-78
2021/03/22 09:50:39;;;;;;;11.25;7.65;;;;;;;6.23;50.85;99427.06;1687029;83;21298;-78
2021/03/22 09:54:13;;;;;;;11.60;7.20;;;;;;;6.19;49.91;99429.78;1689524;83;21598;-78
2021/03/22 09:57:45;;;;;;;12.63;7.30;;;;;;;6.11;50.84;99436.55;1685542;83;22413;-77
2021/03/22 10:01:05;;;;;;;11.22;7.20;;;;;;;6.10;50.92;99433.51;1683782;83;21284;-77
2021/03/22 10:04:27;;;;;;;9.00;6.80;;;;;;;6.14;51.24;99430.80;1685107;83;21177;-77
2021/03/22 10:07:39;;;;;;;12.05;6.60;;;;;;;6.23;51.21;99426.22;1683629;83;21216;-78
2021/03/22 10:10:50;;;;;;;9.03;7.30;;;;;;;6.33;51.21;99430.97;1671809;83;21220;-77
2021/03/22 10:13:57;;;;;;;10.13;6.45;;;;;;;6.42;49.86;99427.73;1681691;83;22237;-77
2021/03/22 10:17:03;;;;;;;9.33;6.78;;;;;;;6.43;48.81;99422.64;1682885;83;21207;-77
2021/03/22 10:20:30;;;;;;;9.18;6.55;;;;;;;6.31;48.90;99418.92;1683566;83;21197;-77
2021/03/22 10:23:57;;;;;;;11.45;7.62;;;;;;;6.31;49.73;99410.78;1693500;82;21236;-77
2021/03/22 10:27:04;;;;;;;17.77;7.20;;;;;;;6.32;49.32;99409.75;1653966;83;21972;-77
2021/03/22 10:30:21;;;;;;;11.28;7.45;;;;;;;6.44;49.83;99406.67;1684524;83;21199;-77
2021/03/22 10:33:27;;;;;;;10.03;7.33;;;;;;;6.57;48.43;99407.84;1715856;82;22158;-77
2021/03/22 10:36:44;;;;;;;11.35;6.50;;;;;;;6.57;47.83;99394.26;1718988;82;21313;-77
2021/03/22 10:39:51;;;;;;;10.08;6.60;;;;;;;6.60;47.87;99395.80;1723286;82;21330;-77
2021/03/22 10:42:56;;;;;;;8.50;6.47;;;;;;;6.58;48.09;99389.66;1717996;82;21357;-77
2021/03/22 10:46:01;;;;;;;10.70;6.85;;;;;;;6.61;48.32;99373.03;1682727;83;21196;-77
2021/03/22 10:49:22;;;;;;;11.80;7.15;;;;;;;6.59;48.27;99370.50;1693149;83;21326;-78
2021/03/22 10:52:36;;;;;;;9.00;6.72;;;;;;;6.58;48.22;99359.27;1656844;83;21843;-78
2021/03/22 10:55:43;;;;;;;10.95;7.60;;;;;;;6.72;48.40;99361.77;1704296;82;21318;-78
2021/03/22 10:58:51;;;;;;;11.00;6.50;;;;;;;6.93;48.90;99363.09;1720923;82;21865;-78
2021/03/22 11:02:00;;;;;;;8.58;6.83;;;;;;;7.15;48.88;99356.84;1694409;83;21857;-77
2021/03/22 11:05:05;;;;;;;9.40;6.95;;;;;;;7.25;47.18;99352.06;1716573;82;22236;-77
2021/03/22 11:08:17;;;;;;;9.33;6.80;;;;;;;7.12;46.49;99355.34;1699337;82;21171;-78
2021/03/22 11:11:27;;;;;;;9.10;7.20;;;;;;;7.07;46.92;99348.75;1719958;82;21173;-78
2021/03/22 11:14:37;;;;;;;11.73;6.65;;;;;;;7.16;47.25;99344.97;1721205;82;21203;-77
2021/03/22 11:17:43;;;;;;;9.63;6.95;;;;;;;7.40;47.77;99344.82;1716665;82;21832;-78
2021/03/22 11:20:53;;;;;;;10.10;7.20;;;;;;;7.59;46.70;99346.23;1702086;82;21248;-78
2021/03/22 11:24:00;;;;;;;;;;;;;;;7.77;45.93;99345.09;1687130;83;21203;-77
2021/03/22 11:27:07;;;;;;;9.95;6.35;;;;;;;7.92;45.50;99339.18;1716589;82;20269;-78
2021/03/22 11:30:23;;;;;;;8.48;6.45;;;;;;;8.09;45.35;99345.31;1679389;83;21219;-77
2021/03/22 11:33:34;;;;;;;10.03;6.22;;;;;;;8.19;45.06;99341.84;1691653;83;21229;-77
2021/03/22 11:36:56;;;;;;;8.80;7.10;;;;;;;8.33;43.98;99346.48;1700689;83;21417;-76
2021/03/22 11:40:38;;;;;;;11.63;7.05;;;;;;;8.37;43.65;99338.78;1682692;83;21303;-77
2021/03/22 11:44:22;;;;;;;7.60;5.58;;;;;;;8.37;44.54;99345.08;1681898;83;21284;-77
2021/03/22 11:47:50;;;;;;;13.58;7.12;;;;;;;8.36;44.72;99342.03;1694243;83;21678;-77
2021/03/22 11:51:13;;;;;;;10.75;6.95;;;;;;;8.28;43.79;99342.10;1695841;83;21188;-77
2021/03/22 11:54:25;;;;;;;8.03;6.20;;;;;;;8.19;43.43;99345.41;1697172;83;21631;-81
2021/03/22 11:57:45;;;;;;;10.03;6.78;;;;;;;8.15;43.70;99333.70;1690176;83;21801;-78
2021/03/22 12:00:51;;;;;;;8.75;6.15;;;;;;;8.11;44.29;99329.66;1695169;83;21881;-77
2021/03/22 12:03:57;;;;;;;8.03;6.35;;;;;;;8.15;43.85;99343.24;1685388;83;22233;-77
2021/03/22 12:07:14;;;;;;;8.65;5.92;;;;;;;8.16;43.64;99336.23;1695107;83;21352;-84
2021/03/22 12:10:28;;;;;;;10.05;6.47;;;;;;;8.20;43.11;99331.27;1690188;83;21665;-77
2021/03/22 12:13:33;;;;;;;7.25;5.90;;;;;;;8.24;43.41;99318.14;1690837;83;21232;-78
2021/03/22 12:16:44;;;;;;;7.95;5.60;;;;;;;8.19;43.73;99320.05;1692373;83;21224;-77
2021/03/22 12:19:51;;;;;;;8.70;5.62;;;;;;;8.18;42.79;99314.25;1694728;83;21278;-78
2021/03/22 12:22:56;;;;;;;7.75;5.87;;;;;;;8.06;43.59;99311.14;1671732;83;21905;-77
2021/03/22 12:26:08;;;;;;;7.72;5.65;;;;;;;8.02;44.16;99311.70;1660967;83;21219;-78
2021/03/22 12:29:22;;;;;;;9.00;6.03;;;;;;;7.94;43.58;99305.80;1694262;83;21918;-77
2021/03/22 12:32:32;;;;;;;8.30;5.40;;;;;;;7.89;43.51;99298.17;1692821;83;22122;-78
2021/03/22 12:35:44;;;;;;;7.87;5.87;;;;;;;7.98;44.11;99297.59;1695065;83;21212;-78
2021/03/22 12:38:52;;;;;;;7.70;6.05;;;;;;;8.05;44.04;99297.20;1698667;83;21481;-78
2021/03/22 12:42:20;;;;;;;7.92;5.65;;;;;;;8.06;44.03;99292.08;1694287;83;21176;-81
2021/03/22 12:45:50;;;;;;;8.35;5.80;;;;;;;8.05;43.53;99302.65;1697788;83;21398;-76
2021/03/22 12:49:02;;;;;;;8.28;6.22;;;;;;;7.82;42.58;99305.41;1704387;83;21207;-77
2021/03/22 12:52:15;;;;;;;8.95;7.40;;;;;;;7.58;42.76;99306.96;1698174;83;21311;-78
2021/03/22 12:55:29;;;;;;;8.30;7.03;;;;;;;7.47;42.76;99293.23;1696184;83;21208;-77
2021/03/22 12:58:36;;;;;;;9.10;6.37;;;;;;;7.49;42.65;99289.00;1734992;80;21230;-76
2021/03/22 13:01:42;;;;;;;8.85;6.17;;;;;;;7.50;43.29;99282.00;1737000;80;21829;-77
2021/03/22 13:04:47;;;;;;;8.23;6.05;;;;;;;7.46;43.72;99279.83;1694497;82;21248;-78
2021/03/22 13:07:53;;;;;;;11.28;5.87;;;;;;;7.41;44.26;99278.48;1725450;81;22368;-78
2021/03/22 13:11:00;;;;;;;8.58;6.12;;;;;;;7.43;44.59;99275.09;1700214;83;22470;-76
2021/03/22 13:14:06;;;;;;;7.95;6.10;;;;;;;7.46;44.28;99279.83;1726919;82;22391;-75
2021/03/22 13:17:12;;;;;;;7.35;5.83;;;;;;;7.49;44.04;99283.04;1723675;81;21231;-77
2021/03/22 13:20:20;;;;;;;7.80;5.58;;;;;;;7.50;44.26;99273.00;1729193;81;21278;-76
2021/03/22 13:23:28;;;;;;;9.13;6.20;;;;;;;7.52;44.06;99270.41;1700119;83;21549;-77
2021/03/22 13:26:35;;;;;;;6.83;5.62;;;;;;;7.55;43.54;99275.50;1697683;83;21206;-77
2021/03/22 13:29:40;;;;;;;8.75;6.15;;;;;;;7.57;43.32;99282.11;1698700;83;21243;-78
2021/03/22 13:32:46;;;;;;;9.80;8.43;;;;;;;7.56;42.83;99283.15;1697846;83;21338;-77
2021/03/22 13:35:52;;;;;;;10.82;7.22;;;;;;;7.50;42.24;99283.87;1696262;83;21875;-77
2021/03/22 13:38:58;;;;;;;12.20;6.08;;;;;;;7.47;43.48;99289.16;1691249;83;21258;-77
2021/03/22 13:42:03;;;;;;;13.28;11.65;;;;;;;7.52;43.40;99280.45;1694108;83;21231;-76
2021/03/22 13:45:07;;;;;;;14.98;11.40;;;;;;;7.55;43.04;99273.30;1698498;83;22541;-77
2021/03/22 13:48:13;;;;;;;11.10;6.65;;;;;;;7.47;42.45;99272.83;1703555;83;21184;-79
2021/03/22 13:51:28;;;;;;;9.10;5.97;;;;;;;7.36;43.33;99273.27;1730971;81;21266;-79
2021/03/22 13:54:37;;;;;;;11.25;6.28;;;;;;;7.18;43.66;99268.11;1730313;82;21270;-78
2021/03/22 13:57:43;;;;;;;11.18;6.50;;;;;;;7.06;44.26;99268.20;1732279;82;21204;-79
2021/03/22 14:00:49;;;;;;;10.48;6.47;;;;;;;6.97;44.08;99264.69;1728542;82;21291;-77
2021/03/22 14:03:56;;;;;;;10.10;7.00;;;;;;;6.86;44.53;99263.19;1731699;82;21165;-78
2021/03/22 14:07:02;;;;;;;12.90;6.37;;;;;;;6.79;44.34;99255.94;1734811;81;21345;-80
2021/03/22 14:10:08;;;;;;;9.15;6.40;;;;;;;6.73;44.30;99250.70;1733921;82;21269;-76
2021/03/22 14:13:13;;;;;;;10.63;6.28;;;;;;;6.64;43.93;99242.26;1702376;83;21207;-76
2021/03/22 14:16:19;;;;;;;12.18;6.83;;;;;;;6.53;44.71;99238.55;1727503;82;21535;-76
2021/03/22 14:19:24;;;;;;;8.30;6.50;;;;;;;6.44;44.58;99239.09;1700199;83;21332;-76
2021/03/22 14:22:29;;;;;;;10.75;6.55;;;;;;;6.36;44.67;99238.63;1726756;81;21153;-77
2021/03/22 14:25:34;;;;;;;10.68;7.50;;;;;;;6.30;44.79;99234.39;1725918;82;22063;-76
2021/03/22 14:28:41;;;;;;;10.98;7.08;;;;;;;6.22;43.58;99227.66;1709192;83;21823;-77
2021/03/22 14:31:47;;;;;;;14.55;9.15;;;;;;;6.10;43.69;99236.67;1694544;83;21811;-77
2021/03/22 14:34:53;;;;;;;12.33;8.08;;;;;;;6.03;43.81;99229.74;1706632;83;21291;-76
2021/03/22 14:37:59;;;;;;;10.03;7.25;;;;;;;5.96;43.96;99237.38;1655102;85;21168;-77
2021/03/22 14:41:05;;;;;;;14.10;8.23;;;;;;;5.87;44.17;99236.00;1690029;83;21323;-77
2021/03/22 14:44:11;;;;;;;14.30;7.97;;;;;;;5.83;44.13;99231.96;1683127;83;21293;-76
2021/03/22 14:47:16;;;;;;;16.42;8.35;;;;;;;5.80;44.10;99243.15;1685892;83;21314;-77
2021/03/22 14:50:25;;;;;;;12.90;8.45;;;;;;;5.76;44.33;99240.44;1689471;83;22141;-77
2021/03/22 14:53:31;;;;;;;13.32;7.83;;;;;;;5.71;44.44;99227.90;1687541;84;21233;-77
2021/03/22 14:56:36;;;;;;;13.93;9.18;;;;;;;5.66;44.08;99220.78;1689148;84;21224;-76
2021/03/22 14:59:41;;;;;;;17.27;10.30;;;;;;;5.61;44.70;99223.16;1664660;85;21304;-77
2021/03/22 15:02:48;;;;;;;17.07;9.30;;;;;;;5.59;44.89;99226.54;1693315;84;21781;-76
2021/03/22 15:05:55;;;;;;;15.75;8.03;;;;;;;5.58;45.02;99226.20;1696284;84;21305;-76
2021/03/22 15:09:00;;;;;;;13.60;8.48;;;;;;;5.56;45.17;99226.39;1688110;84;21736;-76